Time;durP1;ratioP1;P1;durP2;ratioP2;P2;SDS_P1;SDS_P2;PMS_P1;PMS_P2;Temp;Humidity;BMP_temperature;BMP_pressure;BME280_temperature;BME280_humidity;BME280_pressure;Samples;Min_cycle;Max_cycle;Signal;HPM_P1;HPM_P2
2023/09/21 00:00:32;;;;;;;7.38;1.98;;;19.20;99.90;;;;;;5024147;28;20552;-71
2023/09/21 00:02:58;;;;;;;4.20;1.80;;;19.20;99.90;;;;;;5021671;28;20091;-71
2023/09/21 00:05:29;;;;;;;5.97;1.70;;;19.20;99.90;;;;;;5014840;28;20034;-71
2023/09/21 00:07:57;;;;;;;9.63;2.17;;;19.30;99.90;;;;;;5035598;28;20056;-72
2023/09/21 00:10:23;;;;;;;;;;;19.20;99.90;;;;;;5023338;28;20147;-72
2023/09/21 00:12:48;;;;;;;3.17;1.65;;;19.20;99.90;;;;;;5019332;28;19952;-71
2023/09/21 00:15:17;;;;;;;9.85;1.63;;;19.30;99.90;;;;;;5018996;28;20051;-71
2023/09/21 00:17:43;;;;;;;10.07;1.55;;;19.30;99.90;;;;;;5025535;28;20533;-72
2023/09/21 00:22:53;;;;;;;5.25;1.75;;;19.30;99.90;;;;;;5012355;28;20395;-71
2023/09/21 00:25:20;;;;;;;5.47;1.80;;;19.30;99.90;;;;;;5025022;28;20033;-71
2023/09/21 00:27:49;;;;;;;6.18;1.85;;;19.20;99.90;;;;;;5024293;28;20030;-70
2023/09/21 00:30:14;;;;;;;5.22;1.55;;;19.20;99.90;;;;;;5019045;28;20033;-71
2023/09/21 00:32:41;;;;;;;4.43;1.67;;;19.20;99.90;;;;;;5024520;28;20045;-71
2023/09/21 00:35:10;;;;;;;4.82;1.73;;;19.30;99.90;;;;;;5028725;28;20519;-71
2023/09/21 00:37:40;;;;;;;5.95;2.28;;;19.30;99.90;;;;;;5016867;28;20034;-71
2023/09/21 00:40:18;;;;;;;2.47;1.48;;;19.30;99.90;;;;;;5016570;28;20382;-71
2023/09/21 00:42:47;;;;;;;4.38;1.65;;;19.30;99.90;;;;;;5023626;28;20040;-71
2023/09/21 00:45:14;;;;;;;4.43;1.88;;;19.20;99.90;;;;;;5025905;28;20105;-71
2023/09/21 00:47:45;;;;;;;3.45;1.70;;;19.10;99.90;;;;;;5017630;28;20124;-71
2023/09/21 00:50:12;;;;;;;4.00;1.60;;;19.10;99.90;;;;;;5014333;28;20135;-71
2023/09/21 00:52:48;;;;;;;;;;;19.10;99.90;;;;;;5022917;28;20044;-71
2023/09/21 00:55:17;;;;;;;7.13;2.03;;;19.20;99.90;;;;;;5016585;28;20063;-71
2023/09/21 00:57:45;;;;;;;2.38;1.27;;;19.10;99.90;;;;;;5015039;28;20030;-71
2023/09/21 01:00:13;;;;;;;5.95;1.63;;;19.10;99.90;;;;;;5020972;28;20041;-71
2023/09/21 01:02:43;;;;;;;5.43;1.40;;;19.20;99.90;;;;;;5018942;28;20529;-71
2023/09/21 01:05:17;;;;;;;3.22;1.38;;;19.20;99.90;;;;;;5023561;28;20572;-71
2023/09/21 01:07:45;;;;;;;4.88;1.73;;;19.10;99.90;;;;;;5015987;28;20029;-71
2023/09/21 01:10:19;;;;;;;6.28;1.70;;;19.10;99.90;;;;;;5014319;28;20037;-71
2023/09/21 01:12:48;;;;;;;4.82;1.40;;;19.10;99.90;;;;;;5022512;28;20033;-71
2023/09/21 01:15:14;;;;;;;9.65;1.55;;;19.10;99.90;;;;;;5019468;28;20041;-70
2023/09/21 01:17:44;;;;;;;3.87;1.30;;;19.00;99.90;;;;;;5021838;28;20030;-71
2023/09/21 01:20:22;;;;;;;5.25;1.40;;;19.00;99.90;;;;;;5016633;28;20033;-71
2023/09/21 01:23:10;;;;;;;6.60;1.67;;;19.00;99.90;;;;;;5010821;28;20052;-71
2023/09/21 01:25:40;;;;;;;3.95;1.42;;;19.00;99.90;;;;;;5017087;28;20052;-71
2023/09/21 01:28:20;;;;;;;7.28;1.35;;;19.00;99.90;;;;;;5016161;28;20080;-72
2023/09/21 01:30:46;;;;;;;11.63;1.73;;;19.00;99.90;;;;;;5014245;28;20026;-72
2023/09/21 01:33:12;;;;;;;5.20;1.33;;;19.00;99.90;;;;;;5018537;28;20556;-72
2023/09/21 01:35:38;;;;;;;4.47;1.30;;;19.00;99.90;;;;;;5016629;28;20037;-71
2023/09/21 01:38:06;;;;;;;;;;;19.00;99.90;;;;;;5021170;28;20435;-71
2023/09/21 01:40:34;;;;;;;4.43;1.30;;;19.10;99.90;;;;;;5015906;28;19909;-72
2023/09/21 01:43:03;;;;;;;5.20;1.30;;;19.00;99.90;;;;;;5017623;28;20618;-71
2023/09/21 01:45:29;;;;;;;3.70;1.40;;;19.00;99.90;;;;;;5020111;28;20033;-72
2023/09/21 01:47:55;;;;;;;3.93;1.73;;;19.00;99.90;;;;;;5028053;28;20037;-71
2023/09/21 01:50:21;;;;;;;7.53;1.73;;;19.00;99.90;;;;;;5021540;28;20088;-71
2023/09/21 01:52:47;;;;;;;3.05;1.42;;;19.00;99.90;;;;;;5028007;28;20032;-71
2023/09/21 01:55:12;;;;;;;3.50;1.13;;;19.00;99.90;;;;;;5024382;28;20041;-71
2023/09/21 01:57:39;;;;;;;3.77;1.40;;;19.00;99.90;;;;;;5017137;28;20030;-71
2023/09/21 02:00:25;;;;;;;;;;;19.00;99.90;;;;;;5019617;28;20029;-71
2023/09/21 02:02:54;;;;;;;3.75;1.30;;;18.90;99.90;;;;;;5028557;28;19917;-71
2023/09/21 02:05:20;;;;;;;3.85;1.10;;;19.00;99.90;;;;;;5018523;28;20037;-71
2023/09/21 02:07:47;;;;;;;7.97;1.40;;;19.00;99.90;;;;;;5020013;28;20048;-72
2023/09/21 02:10:17;;;;;;;5.20;1.23;;;19.00;99.90;;;;;;5017048;28;20527;-71
2023/09/21 02:12:56;;;;;;;5.53;1.75;;;18.90;99.90;;;;;;5014961;28;20017;-72
2023/09/21 02:15:23;;;;;;;4.05;1.13;;;19.00;99.90;;;;;;5021174;28;20480;-72
2023/09/21 02:17:49;;;;;;;3.75;1.40;;;19.00;99.90;;;;;;5009177;28;20032;-72
2023/09/21 02:20:16;;;;;;;5.40;1.40;;;19.00;99.90;;;;;;5013730;28;20144;-72
2023/09/21 02:22:46;;;;;;;;;;;19.00;99.90;;;;;;5014769;28;20033;-72
2023/09/21 02:25:12;;;;;;;6.60;1.75;;;19.00;99.90;;;;;;5028927;28;19913;-72
2023/09/21 02:27:38;;;;;;;;;;;18.90;99.90;;;;;;5016488;28;20117;-72
2023/09/21 02:30:11;;;;;;;4.55;1.98;;;18.90;99.90;;;;;;5006635;28;19920;-72
2023/09/21 02:32:37;;;;;;;4.65;1.30;;;18.90;99.90;;;;;;5017696;28;20026;-72
2023/09/21 02:35:07;;;;;;;6.30;1.70;;;18.90;99.90;;;;;;5015513;28;20050;-72
2023/09/21 02:37:34;;;;;;;2.65;1.40;;;18.90;99.90;;;;;;5014543;28;20064;-72
2023/09/21 02:40:00;;;;;;;5.57;1.55;;;18.80;99.90;;;;;;5011599;28;20041;-72
2023/09/21 02:42:26;;;;;;;2.67;1.35;;;18.80;99.90;;;;;;5018766;28;20497;-72
2023/09/21 02:44:55;;;;;;;2.97;1.30;;;18.70;99.90;;;;;;5018950;28;20037;-72
2023/09/21 02:47:21;;;;;;;2.30;1.00;;;18.70;99.90;;;;;;5014086;28;20037;-72
2023/09/21 02:49:47;;;;;;;;;;;18.60;99.90;;;;;;5012122;28;20121;-72
2023/09/21 02:52:13;;;;;;;3.95;1.20;;;18.60;99.90;;;;;;5019148;28;20043;-72
2023/09/21 02:54:39;;;;;;;2.23;1.20;;;18.60;99.90;;;;;;5013334;28;20045;-73
2023/09/21 02:57:05;;;;;;;8.70;1.40;;;18.60;99.90;;;;;;5009373;28;20707;-73
2023/09/21 02:59:31;;;;;;;3.15;1.00;;;18.60;99.90;;;;;;5012446;28;20037;-72
2023/09/21 03:01:57;;;;;;;7.20;1.20;;;18.50;99.90;;;;;;5014909;28;20048;-72
2023/09/21 03:04:22;;;;;;;6.13;1.40;;;18.50;99.90;;;;;;5015201;28;20497;-72
2023/09/21 03:06:48;;;;;;;5.43;1.20;;;18.40;99.90;;;;;;5015832;28;20375;-72
2023/09/21 03:09:14;;;;;;;5.20;1.37;;;18.40;99.90;;;;;;5018052;28;20292;-71
2023/09/21 03:11:40;;;;;;;11.77;2.08;;;18.40;99.90;;;;;;5015016;28;20280;-71
2023/09/21 03:14:06;;;;;;;5.47;1.17;;;18.40;99.90;;;;;;5013062;28;20045;-71
2023/09/21 03:16:32;;;;;;;5.57;1.77;;;18.40;99.90;;;;;;5013516;28;20044;-71
2023/09/21 03:18:58;;;;;;;6.07;1.20;;;18.40;99.90;;;;;;5012009;28;20025;-71
2023/09/21 03:21:24;;;;;;;2.57;0.93;;;18.40;99.90;;;;;;5017712;28;20214;-71
2023/09/21 03:23:52;;;;;;;4.28;1.23;;;18.40;99.90;;;;;;5012705;28;20034;-71
2023/09/21 03:26:19;;;;;;;2.90;1.20;;;18.40;99.90;;;;;;5017762;28;20726;-71
2023/09/21 03:28:47;;;;;;;7.28;0.90;;;18.50;99.90;;;;;;5017172;28;20124;-71
2023/09/21 03:31:13;;;;;;;5.03;1.52;;;18.40;99.90;;;;;;5013125;28;20124;-71
2023/09/21 03:33:38;;;;;;;3.58;1.40;;;18.40;99.90;;;;;;5015538;28;20065;-70
2023/09/21 03:36:04;;;;;;;8.20;1.50;;;18.40;99.90;;;;;;5021327;28;20467;-71
2023/09/21 03:38:30;;;;;;;4.73;1.57;;;18.40;99.90;;;;;;5019590;28;20060;-71
2023/09/21 03:40:57;;;;;;;8.10;1.20;;;18.40;99.90;;;;;;5009955;28;20431;-71
2023/09/21 03:43:23;;;;;;;4.65;1.40;;;18.40;99.90;;;;;;5018620;28;20037;-71
2023/09/21 03:45:49;;;;;;;3.20;1.38;;;18.40;99.90;;;;;;5016439;28;20061;-70
2023/09/21 03:48:15;;;;;;;4.10;1.25;;;18.30;99.90;;;;;;5015012;28;20485;-71
2023/09/21 03:50:42;;;;;;;;;;;18.30;99.90;;;;;;5020167;28;20052;-71
2023/09/21 03:53:10;;;;;;;5.38;1.55;;;18.40;99.90;;;;;;5017865;28;19909;-72
2023/09/21 03:55:38;;;;;;;4.47;1.42;;;18.40;99.90;;;;;;5018210;28;20685;-72
2023/09/21 03:58:05;;;;;;;5.30;1.58;;;18.40;99.90;;;;;;5018464;28;20026;-72
2023/09/21 04:03:06;;;;;;;4.90;1.25;;;18.50;99.90;;;;;;5019160;28;20652;-71
2023/09/21 04:05:35;;;;;;;4.05;1.30;;;18.50;99.90;;;;;;5021518;28;20059;-72
2023/09/21 04:08:01;;;;;;;5.22;1.30;;;18.50;99.90;;;;;;5015662;28;20502;-71
2023/09/21 04:10:27;;;;;;;7.25;1.63;;;18.50;99.90;;;;;;5014602;28;20026;-72
2023/09/21 04:12:56;;;;;;;8.07;1.55;;;18.50;99.90;;;;;;5015380;28;20045;-72
2023/09/21 04:15:30;;;;;;;2.53;1.00;;;18.50;99.90;;;;;;5017779;28;20039;-72
2023/09/21 04:17:57;;;;;;;2.92;1.40;;;18.50;99.90;;;;;;5021163;28;20497;-72
2023/09/21 04:20:23;;;;;;;9.13;1.65;;;18.40;99.90;;;;;;5021211;28;20038;-72
2023/09/21 04:22:51;;;;;;;3.60;1.08;;;18.40;99.90;;;;;;5016690;28;20072;-72
2023/09/21 04:25:18;;;;;;;9.50;1.50;;;18.40;99.90;;;;;;5019873;28;20077;-71
2023/09/21 04:27:45;;;;;;;;;;;18.50;99.90;;;;;;5022692;28;20033;-72
2023/09/21 04:30:16;;;;;;;4.68;1.25;;;18.50;99.90;;;;;;5021752;28;20040;-72
2023/09/21 04:32:45;;;;;;;7.22;1.50;;;18.40;99.90;;;;;;5018692;28;20033;-72
2023/09/21 04:35:10;;;;;;;4.65;1.20;;;18.50;99.90;;;;;;5017020;28;20157;-72
2023/09/21 04:37:39;;;;;;;4.07;1.38;;;18.50;99.90;;;;;;5019261;28;20112;-72
2023/09/21 04:40:10;;;;;;;2.88;1.42;;;18.60;99.90;;;;;;5018915;28;20638;-72
2023/09/21 04:42:40;;;;;;;5.88;1.27;;;18.60;99.90;;;;;;5018479;28;20033;-71
2023/09/21 04:45:11;;;;;;;5.97;1.23;;;18.60;99.90;;;;;;5016189;28;20033;-72
2023/09/21 04:47:44;;;;;;;5.80;1.10;;;18.60;99.90;;;;;;5019196;28;20109;-71
2023/09/21 04:50:11;;;;;;;3.00;1.40;;;18.60;99.90;;;;;;5018611;28;20436;-71
2023/09/21 04:52:37;;;;;;;1.38;0.98;;;18.50;99.90;;;;;;5018861;28;20033;-71
2023/09/21 04:55:04;;;;;;;4.03;1.50;;;18.50;99.90;;;;;;5018561;28;20053;-71
2023/09/21 04:57:30;;;;;;;5.80;1.30;;;18.60;99.90;;;;;;5011047;28;20026;-71
2023/09/21 04:59:59;;;;;;;5.22;1.50;;;18.60;99.90;;;;;;5021579;28;20033;-71
2023/09/21 05:02:26;;;;;;;4.85;1.23;;;18.60;99.90;;;;;;5019692;28;20390;-71
2023/09/21 05:04:52;;;;;;;6.05;1.55;;;18.60;99.90;;;;;;5013536;28;20030;-71
2023/09/21 05:07:18;;;;;;;4.80;1.98;;;18.60;99.90;;;;;;5018427;28;20045;-71
2023/09/21 05:09:45;;;;;;;2.83;1.48;;;18.60;99.90;;;;;;5014192;28;20030;-71
2023/09/21 05:12:10;;;;;;;9.40;2.00;;;18.50;99.90;;;;;;5014429;28;20026;-72
2023/09/21 05:14:37;;;;;;;5.53;1.85;;;18.60;99.90;;;;;;5019893;28;20733;-71
2023/09/21 05:17:05;;;;;;;8.60;1.92;;;18.50;99.90;;;;;;5015130;28;20108;-71
2023/09/21 05:19:34;;;;;;;7.10;1.27;;;18.50;99.90;;;;;;5022629;28;20036;-72
2023/09/21 05:22:01;;;;;;;3.92;1.42;;;18.50;99.90;;;;;;5014866;28;20037;-71
2023/09/21 05:24:27;;;;;;;3.83;1.40;;;18.50;99.90;;;;;;5016791;28;20032;-72
2023/09/21 05:26:53;;;;;;;4.50;1.38;;;18.50;99.90;;;;;;5017005;28;20091;-71
2023/09/21 05:29:20;;;;;;;4.38;1.60;;;18.60;99.90;;;;;;5020838;28;20034;-72
2023/09/21 05:31:47;;;;;;;5.97;1.73;;;18.60;99.90;;;;;;5021206;28;20029;-72
2023/09/21 05:34:13;;;;;;;5.03;1.48;;;18.50;99.90;;;;;;5013775;28;20034;-71
2023/09/21 05:36:39;;;;;;;5.63;1.27;;;18.60;99.90;;;;;;5016354;28;20529;-72
2023/09/21 05:39:05;;;;;;;6.38;1.70;;;18.60;99.90;;;;;;5015252;28;20065;-72
2023/09/21 05:41:31;;;;;;;3.03;1.45;;;18.70;99.90;;;;;;5016931;28;20032;-72
2023/09/21 05:43:57;;;;;;;5.35;1.60;;;18.60;99.90;;;;;;5013005;28;20030;-73
2023/09/21 05:46:23;;;;;;;4.30;1.73;;;18.70;99.90;;;;;;5017671;28;20025;-73
2023/09/21 05:48:49;;;;;;;6.85;1.65;;;18.70;99.90;;;;;;5016090;28;20103;-73
2023/09/21 05:51:15;;;;;;;8.93;1.83;;;18.70;99.90;;;;;;5017493;28;20037;-74
2023/09/21 05:53:41;;;;;;;4.60;1.50;;;18.70;99.90;;;;;;5015251;28;20769;-73
2023/09/21 05:56:06;;;;;;;5.13;1.93;;;18.70;99.90;;;;;;5014865;28;20300;-73
2023/09/21 05:58:32;;;;;;;4.53;1.60;;;18.70;99.90;;;;;;5015456;28;20473;-72
2023/09/21 06:01:01;;;;;;;5.00;1.50;;;18.60;99.90;;;;;;5017899;28;20063;-71
2023/09/21 06:03:27;;;;;;;11.88;1.83;;;18.60;99.90;;;;;;5014394;28;20025;-71
2023/09/21 06:05:53;;;;;;;;;;;18.60;99.90;;;;;;5017773;28;20481;-72
2023/09/21 06:08:19;;;;;;;8.00;2.25;;;18.60;99.90;;;;;;5020099;28;19952;-71
2023/09/21 06:10:48;;;;;;;4.07;1.48;;;18.60;99.90;;;;;;5020916;28;20055;-72
2023/09/21 06:13:14;;;;;;;3.53;1.30;;;18.70;99.90;;;;;;5019888;28;20072;-72
2023/09/21 06:15:49;;;;;;;6.63;1.50;;;18.80;99.90;;;;;;5012259;28;20077;-71
2023/09/21 06:18:17;;;;;;;6.70;1.30;;;18.90;99.90;;;;;;5014873;28;20394;-70
2023/09/21 06:20:45;;;;;;;5.13;1.70;;;18.80;99.90;;;;;;5012430;28;20049;-71
2023/09/21 06:23:11;;;;;;;9.93;1.60;;;18.90;99.90;;;;;;5015629;28;20037;-71
2023/09/21 06:25:37;;;;;;;7.22;1.85;;;19.00;99.90;;;;;;5015832;28;20033;-72
2023/09/21 06:28:03;;;;;;;2.63;1.30;;;19.00;99.90;;;;;;5008355;28;20473;-71
2023/09/21 06:30:29;;;;;;;;;;;19.10;99.90;;;;;;5014065;28;20049;-73
2023/09/21 06:32:55;;;;;;;3.75;1.42;;;19.20;99.90;;;;;;5019276;28;19917;-72
2023/09/21 06:35:23;;;;;;;6.20;1.65;;;19.30;99.90;;;;;;5013478;28;20053;-72
2023/09/21 06:37:53;;;;;;;6.63;1.67;;;19.30;99.90;;;;;;5015302;28;20045;-73
2023/09/21 06:40:19;;;;;;;7.50;1.60;;;19.30;99.90;;;;;;5017463;28;20562;-72
2023/09/21 06:42:44;;;;;;;4.67;1.30;;;19.40;99.90;;;;;;5019289;28;20096;-71
2023/09/21 06:45:10;;;;;;;5.30;1.40;;;19.50;99.90;;;;;;5019017;28;20048;-72
2023/09/21 06:47:36;;;;;;;12.25;1.55;;;19.60;99.90;;;;;;5014141;28;20406;-71
2023/09/21 06:50:03;;;;;;;8.47;1.77;;;19.60;99.90;;;;;;5017847;28;20092;-72
2023/09/21 06:52:29;;;;;;;5.28;1.30;;;19.60;99.90;;;;;;5016270;28;20041;-71
2023/09/21 06:54:57;;;;;;;10.95;1.30;;;19.70;99.90;;;;;;5013589;28;20132;-72
2023/09/21 06:57:23;;;;;;;4.93;1.52;;;19.70;99.90;;;;;;5015033;28;20029;-72
2023/09/21 06:59:51;;;;;;;2.90;1.20;;;19.70;99.90;;;;;;5018387;28;20037;-72
2023/09/21 07:02:16;;;;;;;5.03;1.95;;;19.80;99.90;;;;;;5013891;28;20030;-72
2023/09/21 07:04:42;;;;;;;6.30;1.30;;;19.80;99.90;;;;;;5015321;28;20043;-72
2023/09/21 07:07:08;;;;;;;9.13;1.83;;;19.80;99.90;;;;;;5013752;28;20040;-73
2023/09/21 07:09:35;;;;;;;3.23;1.20;;;19.80;99.90;;;;;;5014979;28;20688;-74
2023/09/21 07:12:02;;;;;;;5.05;1.38;;;19.80;99.90;;;;;;5014456;28;20040;-72
2023/09/21 07:14:28;;;;;;;3.78;1.10;;;19.80;99.90;;;;;;5018877;28;20064;-73
2023/09/21 07:16:56;;;;;;;9.32;1.27;;;19.80;99.90;;;;;;5022846;28;20545;-72
2023/09/21 07:19:22;;;;;;;6.28;1.40;;;19.90;99.90;;;;;;5020981;28;20148;-72
2023/09/21 07:21:48;;;;;;;6.60;1.60;;;19.90;99.90;;;;;;5021747;28;20113;-72
2023/09/21 07:24:15;;;;;;;1.10;0.83;;;20.00;99.90;;;;;;5012858;28;20029;-71
2023/09/21 07:26:43;;;;;;;7.78;1.40;;;20.00;99.90;;;;;;5017462;28;20037;-79
2023/09/21 07:29:10;;;;;;;10.65;1.58;;;20.00;99.90;;;;;;5015363;28;20056;-78
2023/09/21 07:31:36;;;;;;;8.02;1.10;;;20.10;99.90;;;;;;5018709;28;20076;-81
2023/09/21 07:34:02;;;;;;;5.47;1.13;;;20.10;99.90;;;;;;5020534;28;20030;-79
2023/09/21 07:36:28;;;;;;;9.85;1.58;;;20.10;99.90;;;;;;5021761;28;20096;-72
2023/09/21 07:38:55;;;;;;;8.23;1.63;;;20.00;99.90;;;;;;5015319;28;20030;-73
2023/09/21 07:41:21;;;;;;;9.30;1.38;;;20.10;99.90;;;;;;5018569;28;20323;-76
2023/09/21 07:43:48;;;;;;;7.53;1.77;;;19.90;99.90;;;;;;5020303;28;20061;-74
2023/09/21 07:46:14;;;;;;;9.88;2.15;;;19.80;99.90;;;;;;5018093;28;20042;-74
2023/09/21 07:48:41;;;;;;;;;;;19.80;99.90;;;;;;5018859;28;20030;-75
2023/09/21 07:51:07;;;;;;;4.57;1.27;;;19.70;99.90;;;;;;5019545;28;19913;-74
2023/09/21 07:53:35;;;;;;;3.53;1.60;;;19.80;99.90;;;;;;5017903;28;20150;-74
2023/09/21 07:56:08;;;;;;;3.30;1.23;;;19.90;99.90;;;;;;5021901;28;20347;-76
2023/09/21 07:58:33;;;;;;;7.40;1.35;;;19.90;99.90;;;;;;5017011;28;20026;-74
2023/09/21 08:01:00;;;;;;;6.70;2.00;;;19.90;99.90;;;;;;5021009;28;20519;-73
2023/09/21 08:03:26;;;;;;;;;;;19.80;99.90;;;;;;5021082;28;20280;-75
2023/09/21 08:05:53;;;;;;;10.40;2.78;;;19.80;99.90;;;;;;5016552;28;19913;-73
2023/09/21 08:08:19;;;;;;;5.95;1.60;;;19.80;99.90;;;;;;5015370;28;20133;-74
2023/09/21 08:10:45;;;;;;;7.65;1.40;;;19.90;99.90;;;;;;5014290;28;20508;-75
2023/09/21 08:13:11;;;;;;;6.72;1.85;;;19.90;99.90;;;;;;5015148;28;20040;-79
2023/09/21 08:15:36;;;;;;;4.67;1.60;;;20.00;99.90;;;;;;5021732;28;20037;-76
2023/09/21 08:18:03;;;;;;;3.42;1.27;;;20.00;99.90;;;;;;5018977;28;20036;-74
2023/09/21 08:20:28;;;;;;;5.60;1.40;;;20.00;99.90;;;;;;5015661;28;20041;-74
2023/09/21 08:22:54;;;;;;;6.10;1.37;;;20.00;99.90;;;;;;5018360;28;20457;-74
2023/09/21 08:25:20;;;;;;;8.47;1.80;;;20.00;99.90;;;;;;5008971;28;20037;-75
2023/09/21 08:27:48;;;;;;;4.70;1.25;;;20.00;99.90;;;;;;5016260;28;20393;-75
2023/09/21 08:30:15;;;;;;;5.70;1.30;;;20.10;99.90;;;;;;5014978;28;20045;-74
2023/09/21 08:32:41;;;;;;;5.63;1.38;;;20.10;99.90;;;;;;5026087;28;20056;-75
2023/09/21 08:35:08;;;;;;;4.07;1.42;;;20.30;99.90;;;;;;5022231;28;20038;-74
2023/09/21 08:37:35;;;;;;;2.90;1.33;;;20.40;99.90;;;;;;5021458;28;20033;-75
2023/09/21 08:40:06;;;;;;;5.13;1.20;;;21.00;99.90;;;;;;5025209;28;20104;-73
2023/09/21 08:42:32;;;;;;;6.50;1.50;;;21.60;99.90;;;;;;5020507;28;20029;-73
2023/09/21 08:44:59;;;;;;;2.60;0.80;;;21.50;99.90;;;;;;5017684;28;20033;-74
2023/09/21 08:47:28;;;;;;;4.35;1.40;;;21.60;99.90;;;;;;5017375;28;20128;-72
2023/09/21 08:49:54;;;;;;;4.63;1.05;;;21.80;99.90;;;;;;5023684;28;20053;-73
2023/09/21 08:52:21;;;;;;;2.17;1.00;;;21.70;99.90;;;;;;5024669;28;20342;-72
2023/09/21 08:54:48;;;;;;;8.20;1.20;;;21.60;99.90;;;;;;5022381;28;20037;-74
2023/09/21 08:57:14;;;;;;;1.25;0.93;;;21.50;99.90;;;;;;5021251;28;20029;-75
2023/09/21 08:59:41;;;;;;;8.68;1.52;;;21.50;99.90;;;;;;5018356;28;20055;-74
2023/09/21 09:02:12;;;;;;;3.97;1.25;;;21.40;99.90;;;;;;5018478;28;20040;-73
2023/09/21 09:04:44;;;;;;;4.60;1.35;;;21.30;99.90;;;;;;5024326;28;20429;-73
2023/09/21 09:07:13;;;;;;;2.65;1.15;;;21.30;99.90;;;;;;5022732;28;20026;-75
2023/09/21 09:09:39;;;;;;;6.13;1.10;;;21.40;99.90;;;;;;5018963;28;20033;-74
2023/09/21 09:12:24;;;;;;;5.38;1.30;;;21.70;99.90;;;;;;5022398;28;20125;-72
2023/09/21 09:14:51;;;;;;;4.05;1.10;;;22.40;99.90;;;;;;5020665;28;20080;-73
2023/09/21 09:17:17;;;;;;;3.45;1.52;;;22.40;99.90;;;;;;5019773;28;20040;-73
2023/09/21 09:19:43;;;;;;;2.25;1.33;;;22.70;99.90;;;;;;5019921;28;20706;-73
2023/09/21 09:22:10;;;;;;;;;;;24.00;95.50;;;;;;5020183;28;20095;-71
2023/09/21 09:24:37;;;;;;;2.95;1.13;;;23.80;94.40;;;;;;5017042;28;19913;-72
2023/09/21 09:27:03;;;;;;;2.60;0.90;;;23.90;95.00;;;;;;5021680;28;20032;-72
2023/09/21 09:29:29;;;;;;;7.40;1.80;;;23.60;94.30;;;;;;5020534;28;20159;-72
2023/09/21 09:31:55;;;;;;;2.40;1.30;;;24.60;92.20;;;;;;5022206;28;20514;-72
2023/09/21 09:34:22;;;;;;;3.88;1.00;;;25.60;90.50;;;;;;5017487;28;20064;-72
2023/09/21 09:36:51;;;;;;;7.18;1.40;;;25.80;89.30;;;;;;5019604;28;20519;-72
2023/09/21 09:39:18;;;;;;;3.47;1.10;;;25.30;89.60;;;;;;5018091;28;20091;-73
2023/09/21 09:41:49;;;;;;;8.30;1.42;;;25.70;90.50;;;;;;5020875;28;20025;-72
2023/09/21 09:44:24;;;;;;;3.10;1.10;;;25.60;87.30;;;;;;5018771;28;20098;-73
2023/09/21 09:46:54;;;;;;;5.68;0.90;;;25.90;88.10;;;;;;5021044;28;20029;-72
2023/09/21 09:49:26;;;;;;;4.07;0.90;;;25.80;88.40;;;;;;5019151;28;20056;-73
2023/09/21 09:51:56;;;;;;;1.35;0.70;;;25.40;91.20;;;;;;5016919;28;20033;-72
2023/09/21 09:54:24;;;;;;;3.80;0.90;;;25.20;89.60;;;;;;5017173;28;20045;-72
2023/09/21 09:56:52;;;;;;;3.55;1.15;;;25.20;90.00;;;;;;5021715;28;20091;-72
2023/09/21 09:59:21;;;;;;;4.82;1.05;;;25.00;89.40;;;;;;5018139;28;20026;-73
2023/09/21 10:01:49;;;;;;;3.30;0.88;;;25.20;89.40;;;;;;5016670;28;20535;-76
2023/09/21 10:04:15;;;;;;;2.97;0.88;;;24.80;85.60;;;;;;5018597;28;20500;-73
2023/09/21 10:06:42;;;;;;;4.05;1.20;;;24.40;90.90;;;;;;5020509;28;20034;-73
2023/09/21 10:09:13;;;;;;;6.18;0.95;;;24.50;92.30;;;;;;5016873;28;20033;-73
2023/09/21 10:11:48;;;;;;;4.00;1.00;;;24.20;90.60;;;;;;5018765;28;20037;-73
2023/09/21 10:14:15;;;;;;;3.60;1.33;;;24.50;90.80;;;;;;5019297;28;20113;-72
2023/09/21 10:16:49;;;;;;;4.97;0.82;;;24.70;89.60;;;;;;5014856;28;20064;-73
2023/09/21 10:19:22;;;;;;;2.00;0.82;;;24.90;90.80;;;;;;5021401;28;20112;-73
2023/09/21 10:21:49;;;;;;;2.42;1.05;;;24.90;91.20;;;;;;5021230;28;20087;-72
2023/09/21 10:24:18;;;;;;;3.47;0.98;;;24.90;89.60;;;;;;5023658;28;20194;-73
2023/09/21 10:26:49;;;;;;;2.17;0.90;;;24.90;90.60;;;;;;5017782;28;20029;-73
2023/09/21 10:29:19;;;;;;;6.43;1.00;;;24.90;92.10;;;;;;5016528;28;20932;-72
2023/09/21 10:31:53;;;;;;;5.47;1.10;;;25.00;86.90;;;;;;5023355;28;20378;-72
2023/09/21 10:34:21;;;;;;;2.63;0.85;;;24.90;88.40;;;;;;5019630;28;20400;-73
2023/09/21 10:36:50;;;;;;;2.67;1.00;;;24.90;87.80;;;;;;5022363;28;20025;-72
2023/09/21 10:39:25;;;;;;;2.97;1.00;;;24.80;89.30;;;;;;5020355;28;20025;-73
2023/09/21 10:41:52;;;;;;;2.70;0.77;;;24.70;89.80;;;;;;5018652;28;20033;-76
2023/09/21 10:45:05;;;;;;;6.70;0.90;;;24.60;89.50;;;;;;5018490;28;20033;-73
2023/09/21 10:47:41;;;;;;;3.28;1.05;;;24.50;87.70;;;;;;5019711;28;20034;-74
2023/09/21 10:50:13;;;;;;;3.72;1.20;;;24.40;90.10;;;;;;5021254;28;20038;-74
2023/09/21 10:52:44;;;;;;;7.05;1.80;;;24.50;90.00;;;;;;5024504;28;20472;-72
2023/09/21 10:55:16;;;;;;;5.70;1.10;;;24.50;89.60;;;;;;5021049;28;20620;-73
2023/09/21 10:57:43;;;;;;;3.33;1.20;;;24.60;88.10;;;;;;5023442;28;20021;-73
2023/09/21 11:00:21;;;;;;;3.53;1.20;;;24.40;90.60;;;;;;5020035;28;20037;-72
2023/09/21 11:02:49;;;;;;;2.42;1.10;;;24.50;89.90;;;;;;5021765;28;20109;-73
2023/09/21 11:05:16;;;;;;;8.07;1.13;;;24.80;90.60;;;;;;5018902;28;20042;-73
2023/09/21 11:07:43;;;;;;;8.65;1.30;;;24.90;88.50;;;;;;5020706;28;20452;-73
2023/09/21 11:10:11;;;;;;;3.83;1.17;;;24.80;87.90;;;;;;5024472;28;20541;-73
2023/09/21 11:12:40;;;;;;;7.38;1.20;;;24.60;89.50;;;;;;5025932;28;20022;-73
2023/09/21 11:15:12;;;;;;;5.35;1.10;;;24.50;89.40;;;;;;5020701;28;20046;-73
2023/09/21 11:17:41;;;;;;;2.25;1.00;;;24.70;86.50;;;;;;5023593;28;20044;-73
2023/09/21 11:20:08;;;;;;;1.63;0.93;;;25.00;88.00;;;;;;5023395;28;20458;-73
2023/09/21 11:22:34;;;;;;;4.15;1.10;;;24.90;85.40;;;;;;5023460;28;20113;-73
2023/09/21 11:25:00;;;;;;;9.63;1.33;;;24.90;89.10;;;;;;5027068;28;20037;-73
2023/09/21 11:27:27;;;;;;;9.57;1.85;;;24.90;88.00;;;;;;5022061;28;20547;-73
2023/09/21 11:29:53;;;;;;;4.35;1.27;;;24.90;87.60;;;;;;5021867;28;20369;-74
2023/09/21 11:32:19;;;;;;;5.70;1.30;;;24.90;89.40;;;;;;5024141;28;20385;-74
2023/09/21 12:24:12;;;;;;;9.43;2.00;;;25.40;82.00;;;;;;5041823;28;20408;-70
2023/09/21 12:26:37;;;;;;;7.63;1.85;;;25.10;78.20;;;;;;5035219;28;20025;-70
2023/09/21 12:29:03;;;;;;;3.13;1.67;;;25.00;80.60;;;;;;5051872;28;20063;-71
2023/09/21 12:31:29;;;;;;;2.20;1.50;;;25.20;79.70;;;;;;5041346;28;20094;-71
2023/09/21 12:33:55;;;;;;;4.03;1.80;;;25.40;80.30;;;;;;5038048;28;20033;-71
2023/09/21 12:36:23;;;;;;;11.30;2.15;;;25.40;81.00;;;;;;5037758;28;20117;-71
2023/09/21 12:38:50;;;;;;;3.53;1.88;;;25.40;81.80;;;;;;5034535;28;20032;-70
2023/09/21 12:41:16;;;;;;;5.68;2.10;;;25.20;79.60;;;;;;5039435;28;20033;-70
2023/09/21 12:43:42;;;;;;;4.10;1.88;;;24.90;82.90;;;;;;5036748;28;20091;-70
2023/09/21 12:46:08;;;;;;;4.05;1.52;;;24.80;83.30;;;;;;5049815;28;20037;-70
2023/09/21 12:48:38;;;;;;;7.60;1.98;;;24.60;81.00;;;;;;5034773;28;20072;-71
2023/09/21 12:51:04;;;;;;;10.50;2.08;;;24.70;84.10;;;;;;5037818;28;20044;-71
2023/09/21 12:53:30;;;;;;;;;;;24.70;82.70;;;;;;5039965;28;20025;-71
2023/09/21 12:55:55;;;;;;;10.45;2.22;;;24.50;79.60;;;;;;5036389;28;20145;-71
2023/09/21 12:58:22;;;;;;;4.30;2.42;;;24.40;81.90;;;;;;5034547;28;20034;-71
2023/09/21 13:00:49;;;;;;;7.65;1.90;;;24.40;80.10;;;;;;5066543;28;20029;-71
2023/09/21 13:03:15;;;;;;;6.90;2.03;;;24.30;80.60;;;;;;5040958;28;20090;-71
2023/09/21 13:05:44;;;;;;;6.57;2.40;;;24.20;82.30;;;;;;5038182;28;20432;-70
2023/09/21 13:08:12;;;;;;;5.40;1.75;;;24.20;83.20;;;;;;5038962;28;20049;-70
2023/09/21 13:10:38;;;;;;;11.02;2.10;;;24.10;83.70;;;;;;5035903;28;20029;-71
2023/09/21 13:13:04;;;;;;;8.00;1.98;;;24.10;81.70;;;;;;5035980;28;20076;-71
2023/09/21 13:15:30;;;;;;;6.45;1.90;;;24.10;86.30;;;;;;5035124;28;20508;-71
2023/09/21 13:17:56;;;;;;;6.22;2.05;;;24.20;87.90;;;;;;5037229;28;20493;-71
2023/09/21 13:20:21;;;;;;;4.75;1.80;;;24.20;82.60;;;;;;5035458;28;20493;-71
2023/09/21 13:22:47;;;;;;;8.93;2.13;;;24.10;82.60;;;;;;5037254;28;20099;-71
2023/09/21 13:25:13;;;;;;;7.93;1.88;;;24.20;83.20;;;;;;5039239;28;20528;-72
2023/09/21 13:27:39;;;;;;;6.63;1.95;;;24.30;81.90;;;;;;5036955;28;20442;-70
2023/09/21 13:30:09;;;;;;;5.22;2.00;;;24.50;85.50;;;;;;5038360;28;20121;-72
2023/09/21 13:32:35;;;;;;;5.95;1.88;;;24.50;82.30;;;;;;5040793;28;20037;-71
2023/09/21 13:35:01;;;;;;;7.50;2.00;;;24.60;81.00;;;;;;5025214;28;20035;-71
2023/09/21 13:37:27;;;;;;;4.03;1.67;;;24.40;86.00;;;;;;5020183;28;20033;-71
2023/09/21 13:39:52;;;;;;;13.43;1.83;;;24.30;84.60;;;;;;5023277;28;20025;-71
2023/09/21 13:42:18;;;;;;;8.57;1.77;;;24.20;84.00;;;;;;5021499;28;20022;-71
2023/09/21 13:44:43;;;;;;;10.57;1.90;;;24.00;85.30;;;;;;5021667;28;20965;-71
2023/09/21 13:47:09;;;;;;;5.70;1.97;;;23.80;87.30;;;;;;5018106;28;20288;-71